Sandwood, South Carolina
Current Conditions -  °F | °C
As of 6:53 PM on Tuesday 25 Nov 2014 (Local Time) from KCUB Reporting Station
Overcast Overcast  
Wind Chill: 58°   Ceiling: 8500
Heat Index: 58°   Visibility: 9mi
Dew Point: 54°   Wind: 0mph
Humidity: 87%   Direction: NA
Pressure: 30.04"   Gusts: NA
Location:  34.025°N, 80.9562°W
Report Text: KCUB 252353Z AUTO 00000KT 9SM OVC085 14/12 A3004 RMK AO2 SLP170 60002 T01440122 10172 20144 53004
Loading
Personal Weather Stations






























Interactive Weather Map New forecast layout! Learn more

10-Day Weather Forecast

Advertisements
Track Severe Weather on mobile